createdAt,value
2017-06-03T00:00:26.943Z,1015.07
2017-06-03T00:01:26.984Z,1015.06
2017-06-03T00:02:27.014Z,1015.1
2017-06-03T00:03:27.032Z,1015.1
2017-06-03T00:04:27.086Z,1015.1
2017-06-03T00:05:27.146Z,1015.12
2017-06-03T00:06:27.130Z,1015.07
2017-06-03T00:07:27.190Z,1015.15
2017-06-03T00:08:27.223Z,1015.17
2017-06-03T00:09:27.232Z,1015.18
2017-06-03T00:10:27.276Z,1015.12
2017-06-03T00:11:27.300Z,1015.13
2017-06-03T00:12:27.338Z,1015.13
2017-06-03T00:13:27.396Z,1015.07
2017-06-03T00:14:27.403Z,1015.14
2017-06-03T00:15:27.440Z,1015.09
2017-06-03T00:16:27.499Z,1015.07
2017-06-03T00:17:27.536Z,1015.08
2017-06-03T00:18:27.544Z,1015.08
2017-06-03T00:19:27.603Z,1015.11
2017-06-03T00:20:27.639Z,1015.09
2017-06-03T00:21:27.682Z,1015.05
2017-06-03T00:22:27.707Z,1015.02
2017-06-03T00:23:27.742Z,1015.05
2017-06-03T00:24:27.748Z,1015.02
2017-06-03T00:25:27.786Z,1015.04
2017-06-03T00:26:27.845Z,1015.07
2017-06-03T00:27:27.854Z,1015.08
2017-06-03T00:28:27.913Z,1015.02
2017-06-03T00:29:27.947Z,1015.04
2017-06-03T00:30:28.059Z,1015.02
2017-06-03T00:31:28.015Z,1015.06
2017-06-03T00:32:28.029Z,1015.05
2017-06-03T00:33:28.056Z,1015.08
2017-06-03T00:34:28.120Z,1015.04
2017-06-03T00:35:28.156Z,1015.02
2017-06-03T00:36:28.163Z,1015.04
2017-06-03T00:37:28.220Z,1014.98
2017-06-03T00:38:28.254Z,1014.94
2017-06-03T00:39:28.289Z,1014.95
2017-06-03T00:40:28.296Z,1014.92
2017-06-03T00:41:28.361Z,1014.91
2017-06-03T00:42:28.367Z,1014.87
2017-06-03T00:43:28.425Z,1014.89
2017-06-03T00:44:28.435Z,1014.9
2017-06-03T00:45:28.493Z,1014.89
2017-06-03T00:46:28.510Z,1014.89
2017-06-03T00:47:28.539Z,1014.89
2017-06-03T00:48:28.566Z,1014.85
2017-06-03T00:49:28.611Z,1014.86
2017-06-03T00:50:28.663Z,1014.87
2017-06-03T00:51:28.677Z,1014.89
2017-06-03T00:52:28.732Z,1014.83
2017-06-03T00:53:28.744Z,1014.86
2017-06-03T00:54:28.802Z,1014.84
2017-06-03T00:55:28.804Z,1014.87
2017-06-03T00:56:28.844Z,1014.88
2017-06-03T00:57:28.902Z,1014.91
2017-06-03T00:58:28.912Z,1014.89
2017-06-03T00:59:28.942Z,1014.91
2017-06-03T01:00:29.005Z,1014.86
2017-06-03T01:01:29.045Z,1014.89
2017-06-03T01:02:29.043Z,1014.89
2017-06-03T01:03:29.082Z,1014.85
2017-06-03T01:04:29.145Z,1014.85
2017-06-03T01:05:29.159Z,1014.86
2017-06-03T01:06:29.185Z,1014.83
2017-06-03T01:07:29.244Z,1014.89
2017-06-03T01:08:29.253Z,1014.95
2017-06-03T01:09:29.312Z,1014.95
2017-06-03T01:10:29.345Z,1014.95
2017-06-03T01:11:29.382Z,1014.96
2017-06-03T01:12:29.418Z,1014.93
2017-06-03T01:13:29.449Z,1014.93
2017-06-03T01:14:29.482Z,1014.91
2017-06-03T01:15:29.517Z,1014.88
2017-06-03T01:16:29.556Z,1014.92
2017-06-03T01:17:29.558Z,1014.91
2017-06-03T01:18:29.593Z,1014.89
2017-06-03T01:19:29.651Z,1014.9
2017-06-03T01:20:29.695Z,1014.95
2017-06-03T01:21:29.696Z,1014.88
2017-06-03T01:22:29.755Z,1014.87
2017-06-03T01:23:29.763Z,1014.87
2017-06-03T01:24:29.820Z,1014.84
2017-06-03T01:25:29.854Z,1014.81
2017-06-03T01:26:29.890Z,1014.8
2017-06-03T01:27:29.921Z,1014.78
2017-06-03T01:28:29.959Z,1014.77
2017-06-03T01:29:29.968Z,1014.73
2017-06-03T01:30:30.026Z,1014.74
2017-06-03T01:31:30.060Z,1014.69
2017-06-03T01:32:30.067Z,1014.69
2017-06-03T01:33:30.123Z,1014.68
2017-06-03T01:34:30.157Z,1014.71
2017-06-03T01:35:30.194Z,1014.68
2017-06-03T01:36:30.228Z,1014.68
2017-06-03T01:37:30.262Z,1014.69
2017-06-03T01:38:30.271Z,1014.65
2017-06-03T01:39:30.306Z,1014.68
2017-06-03T01:40:30.362Z,1014.79
2017-06-03T01:41:30.397Z,1014.73
2017-06-03T01:42:30.428Z,1014.67
2017-06-03T01:43:30.463Z,1014.68
2017-06-03T01:44:30.497Z,1014.67
2017-06-03T01:45:30.529Z,1014.64
2017-06-03T01:46:30.566Z,1014.66
2017-06-03T01:47:30.597Z,1014.68
2017-06-03T01:48:30.628Z,1014.68
2017-06-03T01:49:30.643Z,1014.64
2017-06-03T01:50:30.700Z,1014.64
2017-06-03T01:51:30.734Z,1014.59
2017-06-03T01:52:30.768Z,1014.6
2017-06-03T01:53:30.776Z,1014.57
2017-06-03T01:54:30.832Z,1014.55
2017-06-03T01:55:30.845Z,1014.55
2017-06-03T01:56:30.901Z,1014.55
2017-06-03T01:57:30.933Z,1014.63
2017-06-03T01:58:30.970Z,1014.58
2017-06-03T01:59:30.980Z,1014.63
2017-06-03T02:00:31.034Z,1014.6
2017-06-03T02:01:31.059Z,1014.59
2017-06-03T02:02:31.105Z,1014.61
2017-06-03T02:03:31.135Z,1014.62
2017-06-03T02:04:31.167Z,1014.55
2017-06-03T02:05:31.182Z,1014.59
2017-06-03T02:06:31.236Z,1014.6
2017-06-03T02:07:31.248Z,1014.56
2017-06-03T02:08:31.279Z,1014.58
2017-06-03T02:09:31.339Z,1014.56
2017-06-03T02:10:31.370Z,1014.56
2017-06-03T02:11:31.380Z,1014.6
2017-06-03T02:12:31.407Z,1014.61
2017-06-03T02:13:31.467Z,1014.52
2017-06-03T02:14:31.505Z,1014.5
2017-06-03T02:15:31.519Z,1014.51
2017-06-03T02:16:31.576Z,1014.55
2017-06-03T02:17:31.589Z,1014.47
2017-06-03T02:18:31.617Z,1014.54
2017-06-03T02:19:31.676Z,1014.49
2017-06-03T02:20:31.686Z,1014.49
2017-06-03T02:21:31.745Z,1014.49
2017-06-03T02:22:31.776Z,1014.53
2017-06-03T02:23:31.783Z,1014.49
2017-06-03T02:24:31.816Z,1014.5
2017-06-03T02:25:31.852Z,1014.48
2017-06-03T02:26:31.883Z,1014.51
2017-06-03T02:27:31.917Z,1014.5
2017-06-03T02:28:31.979Z,1014.49
2017-06-03T02:29:31.986Z,1014.46
2017-06-03T02:30:32.040Z,1014.42
2017-06-03T02:31:32.052Z,1014.43
2017-06-03T02:32:32.109Z,1014.38
2017-06-03T02:33:32.141Z,1014.44
2017-06-03T02:34:32.178Z,1014.34
2017-06-03T02:35:32.197Z,1014.34
2017-06-03T02:36:32.241Z,1014.33
2017-06-03T02:37:32.254Z,1014.29
2017-06-03T02:38:32.312Z,1014.31
2017-06-03T02:39:32.347Z,1014.3
2017-06-03T02:40:32.382Z,1014.3
2017-06-03T02:41:32.412Z,1014.29
2017-06-03T02:42:32.419Z,1014.34
2017-06-03T02:43:32.480Z,1014.34
2017-06-03T02:44:32.511Z,1014.39
2017-06-03T02:45:32.547Z,1014.42
2017-06-03T02:46:32.578Z,1014.38
2017-06-03T02:47:32.614Z,1014.33
2017-06-03T02:48:32.667Z,1014.36
2017-06-03T02:49:32.683Z,1014.38
2017-06-03T02:50:32.711Z,1014.41
2017-06-03T02:51:32.722Z,1014.37
2017-06-03T02:52:32.780Z,1014.38
2017-06-03T02:53:32.812Z,1014.46
2017-06-03T02:54:32.822Z,1014.48
2017-06-03T02:55:32.880Z,1014.44
2017-06-03T02:56:32.891Z,1014.47
2017-06-03T02:57:32.948Z,1014.43
2017-06-03T02:58:32.980Z,1014.44
2017-06-03T02:59:33.011Z,1014.46
2017-06-03T03:00:33.019Z,1014.45
2017-06-03T03:01:33.081Z,1014.48
2017-06-03T03:02:33.110Z,1014.47
2017-06-03T03:03:33.147Z,1014.44
2017-06-03T03:04:33.181Z,1014.38
2017-06-03T03:05:33.210Z,1014.41
2017-06-03T03:06:33.248Z,1014.43
2017-06-03T03:07:33.282Z,1014.36
2017-06-03T03:08:33.311Z,1014.4
2017-06-03T03:09:33.321Z,1014.37
2017-06-03T03:10:33.381Z,1014.38
2017-06-03T03:11:33.414Z,1014.35
2017-06-03T03:12:33.432Z,1014.43
2017-06-03T03:13:33.479Z,1014.4
2017-06-03T03:14:33.491Z,1014.41
2017-06-03T03:15:33.548Z,1014.36
2017-06-03T03:16:33.584Z,1014.37
2017-06-03T03:17:33.596Z,1014.36
2017-06-03T03:18:33.623Z,1014.36
2017-06-03T03:19:33.681Z,1014.35
2017-06-03T03:20:33.713Z,1014.34
2017-06-03T03:21:33.747Z,1014.44
2017-06-03T03:22:33.780Z,1014.37
2017-06-03T03:23:33.790Z,1014.39
2017-06-03T03:24:33.846Z,1014.4
2017-06-03T03:25:33.880Z,1014.4
2017-06-03T03:26:33.888Z,1014.42
2017-06-03T03:27:33.921Z,1014.39
2017-06-03T03:28:33.953Z,1014.42
2017-06-03T03:29:33.983Z,1014.43
2017-06-03T03:30:34.046Z,1014.37
2017-06-03T03:31:34.074Z,1014.39
2017-06-03T03:32:34.084Z,1014.39
2017-06-03T03:33:34.118Z,1014.38
2017-06-03T03:34:34.182Z,1014.4
2017-06-03T03:35:34.181Z,1014.4
2017-06-03T03:36:34.221Z,1014.45
2017-06-03T03:37:34.258Z,1014.41
2017-06-03T03:38:34.313Z,1014.45
2017-06-03T03:39:34.316Z,1014.46
2017-06-03T03:40:34.374Z,1014.43
2017-06-03T03:41:34.382Z,1014.45
2017-06-03T03:42:34.444Z,1014.45
2017-06-03T03:43:34.451Z,1014.45
2017-06-03T03:44:34.484Z,1014.45
2017-06-03T03:45:34.518Z,1014.45
2017-06-03T03:46:34.575Z,1014.45
2017-06-03T03:47:34.577Z,1014.42
2017-06-03T03:48:34.640Z,1014.47
2017-06-03T03:49:34.648Z,1014.46
2017-06-03T03:50:34.682Z,1014.43
2017-06-03T03:51:34.716Z,1014.43
2017-06-03T03:52:34.772Z,1014.43
2017-06-03T03:53:34.782Z,1014.42
2017-06-03T03:54:34.840Z,1014.37
2017-06-03T03:55:34.850Z,1014.4
2017-06-03T03:56:34.903Z,1014.38
2017-06-03T03:57:34.917Z,1014.41
2017-06-03T03:58:34.949Z,1014.41
2017-06-03T03:59:34.978Z,1014.41
2017-06-03T04:00:35.023Z,1014.44
2017-06-03T04:01:35.070Z,1014.37
2017-06-03T04:02:35.091Z,1014.38
2017-06-03T04:03:35.129Z,1014.4
2017-06-03T04:04:35.158Z,1014.38
2017-06-03T04:05:35.193Z,1014.41
2017-06-03T04:06:35.227Z,1014.44
2017-06-03T04:07:35.259Z,1014.49
2017-06-03T04:08:35.292Z,1014.47
2017-06-03T04:09:35.325Z,1014.41
2017-06-03T04:10:35.356Z,1014.41
2017-06-03T04:11:35.392Z,1014.39
2017-06-03T04:12:35.426Z,1014.36
2017-06-03T04:13:35.461Z,1014.38
2017-06-03T04:14:35.494Z,1014.48
2017-06-03T04:15:35.526Z,1014.59
2017-06-03T04:16:35.561Z,1014.6
2017-06-03T04:17:35.593Z,1014.59
2017-06-03T04:18:35.624Z,1014.76
2017-06-03T04:19:35.662Z,1015
2017-06-03T04:20:35.698Z,1015.09
2017-06-03T04:21:35.730Z,1015.11
2017-06-03T04:22:35.765Z,1015.08
2017-06-03T04:23:35.802Z,1015.17
2017-06-03T04:24:35.834Z,1015.11
2017-06-03T04:25:35.879Z,1015.12
2017-06-03T04:26:35.909Z,1015
2017-06-03T04:27:35.939Z,1014.79
2017-06-03T04:28:35.976Z,1014.65
2017-06-03T04:29:36.010Z,1014.6
2017-06-03T04:30:36.047Z,1014.4
2017-06-03T04:31:36.090Z,1014.37
2017-06-03T04:32:36.105Z,1014.38
2017-06-03T04:33:36.162Z,1014.41
2017-06-03T04:34:36.197Z,1014.33
2017-06-03T04:35:36.235Z,1014.43
2017-06-03T04:36:36.264Z,1014.42
2017-06-03T04:37:36.304Z,1014.48
2017-06-03T04:38:36.322Z,1014.41
2017-06-03T04:39:36.374Z,1014.45
2017-06-03T04:40:36.409Z,1014.49
2017-06-03T04:41:36.447Z,1014.44
2017-06-03T04:42:36.484Z,1014.45
2017-06-03T04:43:36.505Z,1014.66
2017-06-03T04:44:36.553Z,1014.39
2017-06-03T04:45:36.592Z,1014.35
2017-06-03T04:46:36.621Z,1014.3
2017-06-03T04:47:36.660Z,1014.27
2017-06-03T04:48:36.698Z,1014.28
2017-06-03T04:49:36.717Z,1014.22
2017-06-03T04:50:36.767Z,1014.26
2017-06-03T04:51:36.805Z,1014.19
2017-06-03T04:52:36.838Z,1014.14
2017-06-03T04:53:36.886Z,1014.24
2017-06-03T04:54:36.913Z,1014.15
2017-06-03T04:55:36.942Z,1014.11
2017-06-03T04:56:36.982Z,1014.06
2017-06-03T04:57:37.013Z,1014.11
2017-06-03T04:58:37.051Z,1014.04
2017-06-03T04:59:37.085Z,1014.03
2017-06-03T05:00:37.122Z,1014.01
2017-06-03T05:01:37.158Z,1014.05
2017-06-03T05:02:37.192Z,1014.08
2017-06-03T05:03:37.216Z,1014.12
2017-06-03T05:04:37.259Z,1014.05
2017-06-03T05:05:37.511Z,1014.03
2017-06-03T05:06:37.335Z,1014.06
2017-06-03T05:07:37.372Z,1014.11
2017-06-03T05:08:37.407Z,1014.13
2017-06-03T05:09:37.442Z,1014.11
2017-06-03T05:10:37.475Z,1014.07
2017-06-03T05:11:37.510Z,1014.1
2017-06-03T05:12:37.550Z,1014.08
2017-06-03T05:13:37.585Z,1013.99
2017-06-03T05:14:37.619Z,1014.04
2017-06-03T05:15:37.653Z,1014.06
2017-06-03T05:16:37.690Z,1014.03
2017-06-03T05:17:37.721Z,1014.02
2017-06-03T05:18:37.754Z,1013.99
2017-06-03T05:19:37.796Z,1013.98
2017-06-03T05:20:37.866Z,1013.97
2017-06-03T05:21:37.874Z,1014.02
2017-06-03T05:22:37.902Z,1014.01
2017-06-03T05:23:37.940Z,1014.08
2017-06-03T05:24:37.975Z,1014.05
2017-06-03T05:25:38.011Z,1014.01
2017-06-03T05:26:38.047Z,1014.01
2017-06-03T05:27:38.083Z,1014.02
2017-06-03T05:28:38.120Z,1014.04
2017-06-03T05:29:38.151Z,1014.08
2017-06-03T05:30:38.191Z,1014.08
2017-06-03T05:31:38.203Z,1014.07
2017-06-03T05:32:38.260Z,1014.05
2017-06-03T05:33:38.303Z,1014.09
2017-06-03T05:34:38.336Z,1014.04
2017-06-03T05:35:38.370Z,1014.08
2017-06-03T05:36:38.406Z,1014.07
2017-06-03T05:37:38.441Z,1014.02
2017-06-03T05:38:38.477Z,1014.04
2017-06-03T05:39:38.501Z,1014.03
2017-06-03T05:40:38.555Z,1014.02
2017-06-03T05:41:38.587Z,1014.04
2017-06-03T05:42:38.616Z,1014
2017-06-03T05:43:38.663Z,1014.04
2017-06-03T05:44:38.702Z,1014.04
2017-06-03T05:45:38.741Z,1014.04
2017-06-03T05:46:38.771Z,1014.02
2017-06-03T05:47:38.808Z,1014.05
2017-06-03T05:48:38.845Z,1014.07
2017-06-03T05:49:38.882Z,1014.09
2017-06-03T05:50:38.917Z,1014.05
2017-06-03T05:51:38.955Z,1014.07
2017-06-03T05:52:38.993Z,1014.1
2017-06-03T05:53:39.027Z,1014.04
2017-06-03T05:54:39.065Z,1014.09
2017-06-03T05:55:39.106Z,1014.02
2017-06-03T05:56:39.125Z,1014.1
2017-06-03T05:57:39.182Z,1014.01
2017-06-03T05:58:39.214Z,1014.06
2017-06-03T05:59:39.251Z,1014.07
2017-06-03T06:00:39.291Z,1014.06
2017-06-03T06:01:39.325Z,1014.05
2017-06-03T06:02:39.362Z,1014.08
2017-06-03T06:03:39.398Z,1014.06
2017-06-03T06:04:39.432Z,1014
2017-06-03T06:05:39.482Z,1014.02
2017-06-03T06:06:39.513Z,1014.06
2017-06-03T06:07:39.550Z,1014.05
2017-06-03T06:08:39.587Z,1014.09
2017-06-03T06:09:39.627Z,1014.07
2017-06-03T06:10:39.664Z,1014.12
2017-06-03T06:11:39.697Z,1014.01
2017-06-03T06:12:39.735Z,1014.12
2017-06-03T06:13:39.772Z,1014.13
2017-06-03T06:14:39.814Z,1014.11
2017-06-03T06:15:39.853Z,1014.22
2017-06-03T06:16:39.886Z,1014.08
2017-06-03T06:17:39.928Z,1014.13
2017-06-03T06:18:39.966Z,1014.13
2017-06-03T06:19:40.002Z,1014.02
2017-06-03T06:20:40.026Z,1014.09
2017-06-03T06:21:40.082Z,1014.06
2017-06-03T06:22:40.123Z,1014.05
2017-06-03T06:23:40.162Z,1014.07
2017-06-03T06:24:40.201Z,1013.95
2017-06-03T06:25:40.237Z,1014.07
2017-06-03T06:26:40.294Z,1013.93
2017-06-03T06:27:40.324Z,1013.85
2017-06-03T06:28:40.363Z,1013.85
2017-06-03T06:29:40.401Z,1013.86
2017-06-03T06:30:40.428Z,1014.03
2017-06-03T06:31:40.484Z,1013.92
2017-06-03T06:32:40.522Z,1013.84
2017-06-03T06:33:40.565Z,1013.8
2017-06-03T06:34:40.606Z,1013.77
2017-06-03T06:35:40.629Z,1013.77
2017-06-03T06:36:40.686Z,1013.73
2017-06-03T06:37:40.724Z,1013.69
2017-06-03T06:38:40.788Z,1013.68
2017-06-03T06:39:40.806Z,1013.69
2017-06-03T06:40:40.845Z,1013.73
2017-06-03T06:41:40.887Z,1013.69
2017-06-03T06:42:40.924Z,1013.68
2017-06-03T06:43:40.969Z,1013.7
2017-06-03T06:44:41.000Z,1013.69
2017-06-03T06:45:41.032Z,1013.65
2017-06-03T06:46:41.090Z,1013.63
2017-06-03T06:47:41.123Z,1013.69
2017-06-03T06:48:41.157Z,1013.6
2017-06-03T06:49:41.199Z,1013.66
2017-06-03T06:50:41.238Z,1013.72
2017-06-03T06:51:41.279Z,1013.68
2017-06-03T06:52:41.317Z,1013.65
2017-06-03T06:53:41.349Z,1013.72
2017-06-03T06:54:41.401Z,1013.68
2017-06-03T06:55:41.434Z,1013.68
2017-06-03T06:56:41.471Z,1013.72
2017-06-03T06:57:41.509Z,1013.69
2017-06-03T06:58:41.556Z,1013.71
2017-06-03T06:59:41.593Z,1013.65
2017-06-03T07:00:41.625Z,1013.73
2017-06-03T07:01:41.666Z,1013.75
2017-06-03T07:02:41.709Z,1013.75
2017-06-03T07:03:41.742Z,1013.72
2017-06-03T07:04:41.781Z,1013.78
2017-06-03T07:05:41.820Z,1013.78
2017-06-03T07:06:41.853Z,1013.81
2017-06-03T07:07:41.898Z,1013.83
2017-06-03T07:08:41.941Z,1013.82
2017-06-03T07:09:41.972Z,1013.84
2017-06-03T07:10:42.016Z,1013.78
2017-06-03T07:11:42.076Z,1013.78
2017-06-03T07:12:42.089Z,1013.77
2017-06-03T07:13:42.126Z,1013.72
2017-06-03T07:14:42.169Z,1013.71
2017-06-03T07:15:42.206Z,1013.7
2017-06-03T07:16:42.245Z,1013.72
2017-06-03T07:17:42.286Z,1013.71
2017-06-03T07:18:42.324Z,1013.74
2017-06-03T07:19:42.351Z,1013.79
2017-06-03T07:20:42.395Z,1013.79
2017-06-03T07:21:42.440Z,1013.83
2017-06-03T07:22:42.476Z,1013.82
2017-06-03T07:23:42.512Z,1013.82
2017-06-03T07:24:42.553Z,1013.83
2017-06-03T07:25:42.593Z,1013.89
2017-06-03T07:26:42.628Z,1013.83
2017-06-03T07:27:42.668Z,1013.81
2017-06-03T07:28:42.708Z,1013.73
2017-06-03T07:29:42.748Z,1013.78
2017-06-03T07:30:42.784Z,1013.72
2017-06-03T07:31:42.824Z,1013.78
2017-06-03T07:32:42.851Z,1013.78
2017-06-03T07:33:42.906Z,1013.81
2017-06-03T07:34:42.944Z,1013.8
2017-06-03T07:35:42.983Z,1013.92
2017-06-03T07:36:43.020Z,1013.85
2017-06-03T07:37:43.058Z,1013.8
2017-06-03T07:38:43.089Z,1013.85
2017-06-03T07:39:43.138Z,1014.1
2017-06-03T07:40:43.178Z,1014.17
2017-06-03T07:41:43.220Z,1014.13
2017-06-03T07:42:43.259Z,1014.16
2017-06-03T07:43:43.301Z,1014.12
2017-06-03T07:44:43.336Z,1013.97
2017-06-03T07:45:43.379Z,1014.01
2017-06-03T07:46:43.422Z,1014.13
2017-06-03T07:47:43.461Z,1014.17
2017-06-03T07:48:43.499Z,1014.13
2017-06-03T07:49:43.546Z,1014.16
2017-06-03T07:50:43.588Z,1014.18
2017-06-03T07:51:43.605Z,1014.17
2017-06-03T07:52:43.670Z,1014.27
2017-06-03T07:53:43.714Z,1014.07
2017-06-03T07:54:43.753Z,1013.89
2017-06-03T07:55:43.796Z,1013.96
2017-06-03T07:56:43.840Z,1013.94
2017-06-03T07:57:43.880Z,1014.11
2017-06-03T07:58:43.922Z,1013.85
2017-06-03T07:59:43.947Z,1013.81
2017-06-03T08:00:44.012Z,1013.92
2017-06-03T08:01:44.053Z,1013.92
2017-06-03T08:02:44.096Z,1013.88
2017-06-03T08:03:44.142Z,1013.84
2017-06-03T08:04:44.182Z,1013.84
2017-06-03T08:05:44.223Z,1013.85
2017-06-03T08:06:44.271Z,1013.85
2017-06-03T08:07:44.313Z,1013.8
2017-06-03T08:08:44.352Z,1013.73
2017-06-03T08:09:44.398Z,1013.7
2017-06-03T08:10:44.420Z,1013.83
2017-06-03T08:11:44.480Z,1013.79
2017-06-03T08:12:44.525Z,1013.76
2017-06-03T08:13:44.564Z,1013.68
2017-06-03T08:14:44.609Z,1013.68
2017-06-03T08:15:44.651Z,1013.64
2017-06-03T08:16:44.690Z,1013.63
2017-06-03T08:17:44.719Z,1013.64
2017-06-03T08:18:44.780Z,1013.65
2017-06-03T08:19:44.798Z,1013.62
2017-06-03T08:20:44.866Z,1013.6
2017-06-03T08:21:44.907Z,1013.62
2017-06-03T08:22:44.945Z,1013.63
2017-06-03T08:23:44.992Z,1013.64
2017-06-03T08:24:45.037Z,1013.6
2017-06-03T08:25:45.069Z,1013.69
2017-06-03T08:26:45.116Z,1013.63
2017-06-03T08:27:45.159Z,1013.54
2017-06-03T08:28:45.203Z,1013.5
2017-06-03T08:29:45.243Z,1013.54
2017-06-03T08:30:45.286Z,1013.57
2017-06-03T08:31:45.310Z,1013.54
2017-06-03T08:32:45.366Z,1013.51
2017-06-03T08:33:45.412Z,1013.48
2017-06-03T08:34:45.449Z,1013.43
2017-06-03T08:35:45.495Z,1013.41
2017-06-03T08:36:45.535Z,1013.4
2017-06-03T08:37:45.558Z,1013.42
2017-06-03T08:38:45.614Z,1013.37
2017-06-03T08:39:45.660Z,1013.41
2017-06-03T08:40:45.699Z,1013.39
2017-06-03T08:41:45.738Z,1013.35
2017-06-03T08:42:45.781Z,1013.32
2017-06-03T08:43:45.813Z,1013.31
2017-06-03T08:44:45.861Z,1013.25
2017-06-03T08:45:45.909Z,1013.23
2017-06-03T08:46:45.944Z,1013.18
2017-06-03T08:47:45.985Z,1013.2
2017-06-03T08:48:46.027Z,1013.09
2017-06-03T08:49:46.069Z,1013.04
2017-06-03T08:50:46.110Z,1013.06
2017-06-03T08:51:46.150Z,1013.04
2017-06-03T08:52:46.188Z,1013.05
2017-06-03T08:53:46.213Z,1013.08
2017-06-03T08:54:46.265Z,1013.08
2017-06-03T08:55:46.309Z,1013.04
2017-06-03T08:56:46.349Z,1013.05
2017-06-03T08:57:46.389Z,1013.07
2017-06-03T08:58:46.409Z,1013.08
2017-06-03T08:59:46.468Z,1013.06
2017-06-03T09:00:46.508Z,1013.09
2017-06-03T09:01:46.545Z,1013.04
2017-06-03T09:02:46.578Z,1013.07
2017-06-03T09:03:46.620Z,1013.06
2017-06-03T09:04:46.656Z,1013.13
2017-06-03T09:05:46.693Z,1013.11
2017-06-03T09:06:46.741Z,1013.1
2017-06-03T09:07:46.779Z,1013.15
2017-06-03T09:08:46.813Z,1013.15
2017-06-03T09:09:46.854Z,1013.16
2017-06-03T09:10:46.889Z,1013.22
2017-06-03T09:11:46.929Z,1013.2
2017-06-03T09:12:46.971Z,1013.18
2017-06-03T09:13:47.008Z,1013.22
2017-06-03T09:14:47.048Z,1013.27
2017-06-03T09:15:47.080Z,1013.22
2017-06-03T09:16:47.117Z,1013.3
2017-06-03T09:17:47.159Z,1013.3
2017-06-03T09:18:47.198Z,1013.36
2017-06-03T09:19:47.234Z,1013.37
2017-06-03T09:20:47.277Z,1013.37
2017-06-03T09:21:47.309Z,1013.42
2017-06-03T09:22:47.346Z,1013.45
2017-06-03T09:23:47.386Z,1013.45
2017-06-03T09:24:47.421Z,1013.43
2017-06-03T09:25:47.457Z,1013.47
2017-06-03T09:26:47.501Z,1013.47
2017-06-03T09:27:47.538Z,1013.54
2017-06-03T09:28:47.576Z,1013.51
2017-06-03T09:29:47.611Z,1013.51
2017-06-03T09:30:47.649Z,1013.49
2017-06-03T09:31:47.686Z,1013.51
2017-06-03T09:32:47.723Z,1013.53
2017-06-03T09:33:47.764Z,1013.51
2017-06-03T09:34:47.808Z,1013.53
2017-06-03T09:35:47.839Z,1013.51
2017-06-03T09:36:47.878Z,1013.52
2017-06-03T09:37:47.901Z,1013.6
2017-06-03T09:38:47.951Z,1013.6
2017-06-03T09:39:47.994Z,1013.56
2017-06-03T09:40:48.029Z,1013.55
2017-06-03T09:41:48.066Z,1013.57
2017-06-03T09:42:48.108Z,1013.62
2017-06-03T09:43:48.128Z,1013.63
2017-06-03T09:44:48.183Z,1013.6
2017-06-03T09:45:48.220Z,1013.67
2017-06-03T09:46:48.259Z,1013.65
2017-06-03T09:47:48.296Z,1013.66
2017-06-03T09:48:48.315Z,1013.59
2017-06-03T09:49:48.371Z,1013.59
2017-06-03T09:50:48.413Z,1013.61
2017-06-03T09:51:48.446Z,1013.68
2017-06-03T09:52:48.488Z,1013.68
2017-06-03T09:53:48.524Z,1013.67
2017-06-03T09:54:48.562Z,1013.68
2017-06-03T09:55:48.607Z,1013.67
2017-06-03T09:56:48.636Z,1013.62
2017-06-03T09:57:48.676Z,1013.68
2017-06-03T09:58:48.717Z,1013.7
2017-06-03T09:59:48.752Z,1013.6
2017-06-03T10:00:48.789Z,1013.62
2017-06-03T10:01:48.817Z,1013.61
2017-06-03T10:02:48.867Z,1013.61
2017-06-03T10:03:48.907Z,1013.58
2017-06-03T10:04:48.940Z,1013.58
2017-06-03T10:05:48.984Z,1013.54
2017-06-03T10:06:49.019Z,1013.54
2017-06-03T10:07:49.056Z,1013.57
2017-06-03T10:08:49.093Z,1013.54
2017-06-03T10:09:49.135Z,1013.57
2017-06-03T10:10:49.167Z,1013.52
2017-06-03T10:11:49.210Z,1013.5
2017-06-03T10:12:49.247Z,1013.49
2017-06-03T10:13:49.286Z,1013.44
2017-06-03T10:14:49.304Z,1013.45
2017-06-03T10:15:49.363Z,1013.45
2017-06-03T10:16:49.403Z,1013.41
2017-06-03T10:17:49.433Z,1013.42
2017-06-03T10:18:49.476Z,1013.38
2017-06-03T10:19:49.516Z,1013.37
2017-06-03T10:20:49.551Z,1013.32
2017-06-03T10:21:49.577Z,1013.34
2017-06-03T10:22:49.607Z,1013.35
2017-06-03T10:23:49.668Z,1013.34
2017-06-03T10:24:49.706Z,1013.35
2017-06-03T10:25:49.739Z,1013.29
2017-06-03T10:26:49.783Z,1013.27
2017-06-03T10:27:49.816Z,1013.23
2017-06-03T10:28:49.856Z,1013.29
2017-06-03T10:29:49.892Z,1013.22
2017-06-03T10:30:49.916Z,1013.19
2017-06-03T10:31:49.967Z,1013.15
2017-06-03T10:32:50.010Z,1013.17
2017-06-03T10:33:50.043Z,1013.11
2017-06-03T10:34:50.085Z,1013.13
2017-06-03T10:35:50.103Z,1013.14
2017-06-03T10:36:50.157Z,1013.08
2017-06-03T10:37:50.195Z,1013.08
2017-06-03T10:38:50.236Z,1013.08
2017-06-03T10:39:50.271Z,1013.06
2017-06-03T10:40:50.306Z,1013.05
2017-06-03T10:41:50.345Z,1013.03
2017-06-03T10:42:50.387Z,1013.06
2017-06-03T10:43:50.421Z,1012.97
2017-06-03T10:44:50.460Z,1012.98
2017-06-03T10:45:50.484Z,1012.99
2017-06-03T10:46:50.538Z,1013
2017-06-03T10:47:50.572Z,1013.02
2017-06-03T10:48:50.613Z,1013.02
2017-06-03T10:49:50.650Z,1013.04
2017-06-03T10:50:50.683Z,1012.95
2017-06-03T10:51:50.720Z,1012.95
2017-06-03T10:52:50.759Z,1012.96
2017-06-03T10:53:50.801Z,1012.92
2017-06-03T10:54:50.830Z,1012.9
2017-06-03T10:55:50.870Z,1012.92
2017-06-03T10:56:50.914Z,1012.89
2017-06-03T10:57:50.934Z,1012.9
2017-06-03T10:58:50.985Z,1012.86
2017-06-03T10:59:51.022Z,1012.83
2017-06-03T11:00:51.046Z,1012.83
2017-06-03T11:01:51.093Z,1012.82
2017-06-03T11:02:51.133Z,1012.8
2017-06-03T11:03:51.166Z,1012.82
2017-06-03T11:04:51.207Z,1012.8
2017-06-03T11:05:51.245Z,1012.85
2017-06-03T11:06:51.280Z,1012.8
2017-06-03T11:07:51.318Z,1012.78
2017-06-03T11:08:51.353Z,1012.73
2017-06-03T11:09:51.391Z,1012.7
2017-06-03T11:10:51.424Z,1012.71
2017-06-03T11:11:51.462Z,1012.65
2017-06-03T11:12:51.501Z,1012.61
2017-06-03T11:13:51.536Z,1012.6
2017-06-03T11:14:51.574Z,1012.58
2017-06-03T11:15:51.615Z,1012.56
2017-06-03T11:16:51.651Z,1012.58
2017-06-03T11:17:51.691Z,1012.61
2017-06-03T11:18:51.725Z,1012.61
2017-06-03T11:19:51.763Z,1012.63
2017-06-03T11:20:51.794Z,1012.56
2017-06-03T11:21:51.812Z,1012.55
2017-06-03T11:22:51.851Z,1012.58
2017-06-03T11:23:51.909Z,1012.51
2017-06-03T11:24:51.944Z,1012.57
2017-06-03T11:25:51.986Z,1012.58
2017-06-03T11:26:52.019Z,1012.6
2017-06-03T11:27:52.054Z,1012.56
2017-06-03T11:28:52.089Z,1012.61
2017-06-03T11:29:52.128Z,1012.62
2017-06-03T11:30:52.165Z,1012.59
2017-06-03T11:31:52.200Z,1012.6
2017-06-03T11:32:52.223Z,1012.61
2017-06-03T11:33:52.274Z,1012.56
2017-06-03T11:34:52.313Z,1012.56
2017-06-03T11:35:52.350Z,1012.58
2017-06-03T11:36:52.379Z,1012.54
2017-06-03T11:37:52.418Z,1012.52
2017-06-03T11:38:52.453Z,1012.56
2017-06-03T11:39:52.492Z,1012.55
2017-06-03T11:40:52.527Z,1012.52
2017-06-03T11:41:52.568Z,1012.5
2017-06-03T11:42:52.603Z,1012.46
2017-06-03T11:43:52.635Z,1012.47
2017-06-03T11:44:52.672Z,1012.46
2017-06-03T11:45:52.718Z,1012.5
2017-06-03T11:46:52.747Z,1012.51
2017-06-03T11:47:52.789Z,1012.52
2017-06-03T11:48:52.825Z,1012.53
2017-06-03T11:49:52.859Z,1012.57
2017-06-03T11:50:52.896Z,1012.54
2017-06-03T11:51:52.933Z,1012.58
2017-06-03T11:52:52.968Z,1012.55
2017-06-03T11:53:53.005Z,1012.59
2017-06-03T11:54:53.041Z,1012.56
2017-06-03T11:55:53.081Z,1012.53
2017-06-03T11:56:53.119Z,1012.55
2017-06-03T11:57:53.156Z,1012.57
2017-06-03T11:58:53.190Z,1012.53
2017-06-03T11:59:53.228Z,1012.57
2017-06-03T12:00:53.264Z,1012.55
2017-06-03T12:01:53.301Z,1012.52
2017-06-03T12:02:53.339Z,1012.49
2017-06-03T12:03:53.374Z,1012.51
2017-06-03T12:04:53.411Z,1012.52
2017-06-03T12:05:53.434Z,1012.53
2017-06-03T12:06:53.482Z,1012.48
2017-06-03T12:07:53.521Z,1012.47
2017-06-03T12:08:53.543Z,1012.45